sensor_id;sensor_type;location;lat;lon;timestamp;temperature;humidity
17774;DHT22;9011;33.236;-97.118;2022-09-01T00:00:10;28.80;99.90
17774;DHT22;9011;33.236;-97.118;2022-09-01T00:02:40;28.80;99.90
17774;DHT22;9011;33.236;-97.118;2022-09-01T00:05:11;28.70;99.90
17774;DHT22;9011;33.236;-97.118;2022-09-01T00:07:39;28.60;99.90
17774;DHT22;9011;33.236;-97.118;2022-09-01T00:10:08;28.60;99.90
17774;DHT22;9011;33.236;-97.118;2022-09-01T00:12:38;28.60;99.90
17774;DHT22;9011;33.236;-97.118;2022-09-01T00:15:12;28.50;99.90
17774;DHT22;9011;33.236;-97.118;2022-09-01T00:17:40;28.30;99.90
17774;DHT22;9011;33.236;-97.118;2022-09-01T00:20:09;28.20;99.90
17774;DHT22;9011;33.236;-97.118;2022-09-01T00:22:37;28.20;99.90
17774;DHT22;9011;33.236;-97.118;2022-09-01T00:25:08;28.10;99.90
17774;DHT22;9011;33.236;-97.118;2022-09-01T00:27:39;28.10;99.90
17774;DHT22;9011;33.236;-97.118;2022-09-01T00:30:09;28.00;99.90
17774;DHT22;9011;33.236;-97.118;2022-09-01T00:32:37;28.00;99.90
17774;DHT22;9011;33.236;-97.118;2022-09-01T00:35:06;28.10;99.90
17774;DHT22;9011;33.236;-97.118;2022-09-01T00:37:35;27.90;99.90
17774;DHT22;9011;33.236;-97.118;2022-09-01T00:40:04;27.90;99.90
17774;DHT22;9011;33.236;-97.118;2022-09-01T00:42:33;27.80;99.90
17774;DHT22;9011;33.236;-97.118;2022-09-01T00:45:04;27.80;99.90
17774;DHT22;9011;33.236;-97.118;2022-09-01T00:47:32;27.80;99.90
17774;DHT22;9011;33.236;-97.118;2022-09-01T00:50:03;27.80;99.90
17774;DHT22;9011;33.236;-97.118;2022-09-01T00:52:35;27.70;99.90
17774;DHT22;9011;33.236;-97.118;2022-09-01T00:55:10;27.60;99.90
17774;DHT22;9011;33.236;-97.118;2022-09-01T00:57:43;27.60;99.90
17774;DHT22;9011;33.236;-97.118;2022-09-01T01:00:16;27.50;99.90
17774;DHT22;9011;33.236;-97.118;2022-09-01T01:02:55;27.60;99.90
17774;DHT22;9011;33.236;-97.118;2022-09-01T01:05:24;27.40;99.90
17774;DHT22;9011;33.236;-97.118;2022-09-01T01:07:55;27.40;99.90
17774;DHT22;9011;33.236;-97.118;2022-09-01T01:10:24;27.40;99.90
17774;DHT22;9011;33.236;-97.118;2022-09-01T01:12:54;27.30;99.90
17774;DHT22;9011;33.236;-97.118;2022-09-01T01:15:24;27.40;99.90
17774;DHT22;9011;33.236;-97.118;2022-09-01T01:17:53;27.10;99.90
17774;DHT22;9011;33.236;-97.118;2022-09-01T01:20:28;27.10;99.90
17774;DHT22;9011;33.236;-97.118;2022-09-01T01:26:24;27.10;99.90
17774;DHT22;9011;33.236;-97.118;2022-09-01T01:28:56;27.10;99.90
17774;DHT22;9011;33.236;-97.118;2022-09-01T01:31:43;27.10;99.90
17774;DHT22;9011;33.236;-97.118;2022-09-01T01:34:27;27.10;99.90
17774;DHT22;9011;33.236;-97.118;2022-09-01T01:37:01;27.00;99.90
17774;DHT22;9011;33.236;-97.118;2022-09-01T01:39:29;27.10;99.90
17774;DHT22;9011;33.236;-97.118;2022-09-01T01:41:59;27.10;99.90
17774;DHT22;9011;33.236;-97.118;2022-09-01T01:44:28;27.00;99.90
17774;DHT22;9011;33.236;-97.118;2022-09-01T01:46:56;26.80;99.90
17774;DHT22;9011;33.236;-97.118;2022-09-01T01:49:29;26.90;99.90
17774;DHT22;9011;33.236;-97.118;2022-09-01T01:51:57;26.80;99.90
17774;DHT22;9011;33.236;-97.118;2022-09-01T01:54:27;26.80;99.90
17774;DHT22;9011;33.236;-97.118;2022-09-01T01:56:59;26.90;99.90
17774;DHT22;9011;33.236;-97.118;2022-09-01T01:59:33;26.90;99.90
17774;DHT22;9011;33.236;-97.118;2022-09-01T02:05:31;26.80;99.90
17774;DHT22;9011;33.236;-97.118;2022-09-01T02:08:24;26.70;99.90
17774;DHT22;9011;33.236;-97.118;2022-09-01T02:11:03;26.60;99.90
17774;DHT22;9011;33.236;-97.118;2022-09-01T02:13:33;26.60;99.90
17774;DHT22;9011;33.236;-97.118;2022-09-01T02:16:06;26.30;99.90
17774;DHT22;9011;33.236;-97.118;2022-09-01T02:18:39;26.30;99.90
17774;DHT22;9011;33.236;-97.118;2022-09-01T02:21:09;26.40;99.90
17774;DHT22;9011;33.236;-97.118;2022-09-01T02:23:43;26.30;99.90
17774;DHT22;9011;33.236;-97.118;2022-09-01T02:26:15;26.30;99.90
17774;DHT22;9011;33.236;-97.118;2022-09-01T02:28:58;26.30;99.90
17774;DHT22;9011;33.236;-97.118;2022-09-01T02:31:31;26.30;99.90
17774;DHT22;9011;33.236;-97.118;2022-09-01T02:34:03;26.40;99.90
17774;DHT22;9011;33.236;-97.118;2022-09-01T02:36:36;26.40;99.90
17774;DHT22;9011;33.236;-97.118;2022-09-01T02:39:09;26.40;99.90
17774;DHT22;9011;33.236;-97.118;2022-09-01T02:41:38;26.50;99.90
17774;DHT22;9011;33.236;-97.118;2022-09-01T02:44:08;26.50;99.90
17774;DHT22;9011;33.236;-97.118;2022-09-01T02:46:38;26.50;99.90
17774;DHT22;9011;33.236;-97.118;2022-09-01T02:49:09;26.40;99.90
17774;DHT22;9011;33.236;-97.118;2022-09-01T02:51:41;26.20;99.90
17774;DHT22;9011;33.236;-97.118;2022-09-01T02:54:10;26.30;99.90
17774;DHT22;9011;33.236;-97.118;2022-09-01T02:56:43;26.20;99.90
17774;DHT22;9011;33.236;-97.118;2022-09-01T02:59:15;26.30;99.90
17774;DHT22;9011;33.236;-97.118;2022-09-01T03:01:43;26.20;99.90
17774;DHT22;9011;33.236;-97.118;2022-09-01T03:04:13;26.30;99.90
17774;DHT22;9011;33.236;-97.118;2022-09-01T03:06:45;26.30;99.90
17774;DHT22;9011;33.236;-97.118;2022-09-01T03:09:15;26.20;99.90
17774;DHT22;9011;33.236;-97.118;2022-09-01T03:11:45;26.20;99.90
17774;DHT22;9011;33.236;-97.118;2022-09-01T03:14:15;26.30;99.90
17774;DHT22;9011;33.236;-97.118;2022-09-01T03:19:47;26.20;99.90
17774;DHT22;9011;33.236;-97.118;2022-09-01T03:22:20;26.20;99.90
17774;DHT22;9011;33.236;-97.118;2022-09-01T03:24:49;26.20;99.90
17774;DHT22;9011;33.236;-97.118;2022-09-01T03:27:19;26.10;99.90
17774;DHT22;9011;33.236;-97.118;2022-09-01T03:30:02;26.10;99.90
17774;DHT22;9011;33.236;-97.118;2022-09-01T03:32:33;26.10;99.90
17774;DHT22;9011;33.236;-97.118;2022-09-01T03:35:01;26.10;99.90
17774;DHT22;9011;33.236;-97.118;2022-09-01T03:37:30;26.00;99.90
17774;DHT22;9011;33.236;-97.118;2022-09-01T03:39:58;26.00;99.90
17774;DHT22;9011;33.236;-97.118;2022-09-01T03:42:27;26.00;99.90
17774;DHT22;9011;33.236;-97.118;2022-09-01T03:44:58;26.00;99.90
17774;DHT22;9011;33.236;-97.118;2022-09-01T03:47:34;25.90;99.90
17774;DHT22;9011;33.236;-97.118;2022-09-01T03:50:09;25.90;99.90
17774;DHT22;9011;33.236;-97.118;2022-09-01T03:52:45;25.90;99.90
17774;DHT22;9011;33.236;-97.118;2022-09-01T03:55:14;25.80;99.90
17774;DHT22;9011;33.236;-97.118;2022-09-01T03:57:48;25.80;99.90
17774;DHT22;9011;33.236;-97.118;2022-09-01T04:04:11;25.80;99.90
17774;DHT22;9011;33.236;-97.118;2022-09-01T04:08:30;26.00;99.90
17774;DHT22;9011;33.236;-97.118;2022-09-01T04:17:19;25.80;99.90
17774;DHT22;9011;33.236;-97.118;2022-09-01T04:20:06;25.80;99.90
17774;DHT22;9011;33.236;-97.118;2022-09-01T04:22:34;25.80;99.90
17774;DHT22;9011;33.236;-97.118;2022-09-01T04:25:04;25.70;99.90
17774;DHT22;9011;33.236;-97.118;2022-09-01T04:27:34;25.70;99.90
17774;DHT22;9011;33.236;-97.118;2022-09-01T04:30:07;25.70;99.90
17774;DHT22;9011;33.236;-97.118;2022-09-01T04:32:38;25.70;99.90
17774;DHT22;9011;33.236;-97.118;2022-09-01T04:35:07;25.60;99.90
17774;DHT22;9011;33.236;-97.118;2022-09-01T04:37:42;25.60;99.90
17774;DHT22;9011;33.236;-97.118;2022-09-01T04:40:13;25.70;99.90
17774;DHT22;9011;33.236;-97.118;2022-09-01T04:42:42;25.70;99.90
17774;DHT22;9011;33.236;-97.118;2022-09-01T04:45:16;25.50;99.90
17774;DHT22;9011;33.236;-97.118;2022-09-01T04:48:09;25.60;99.90
17774;DHT22;9011;33.236;-97.118;2022-09-01T04:54:02;25.40;99.90
17774;DHT22;9011;33.236;-97.118;2022-09-01T04:56:34;25.40;99.90
17774;DHT22;9011;33.236;-97.118;2022-09-01T04:59:03;25.50;99.90
17774;DHT22;9011;33.236;-97.118;2022-09-01T05:01:34;25.50;99.90
17774;DHT22;9011;33.236;-97.118;2022-09-01T05:04:11;25.40;99.90
17774;DHT22;9011;33.236;-97.118;2022-09-01T05:06:42;25.50;99.90
17774;DHT22;9011;33.236;-97.118;2022-09-01T05:09:11;25.50;99.90
17774;DHT22;9011;33.236;-97.118;2022-09-01T05:11:40;25.50;99.90
17774;DHT22;9011;33.236;-97.118;2022-09-01T05:14:10;25.50;99.90
17774;DHT22;9011;33.236;-97.118;2022-09-01T05:16:39;25.50;99.90
17774;DHT22;9011;33.236;-97.118;2022-09-01T05:19:15;25.60;99.90
17774;DHT22;9011;33.236;-97.118;2022-09-01T05:21:47;25.60;99.90
17774;DHT22;9011;33.236;-97.118;2022-09-01T05:24:17;25.60;99.90
17774;DHT22;9011;33.236;-97.118;2022-09-01T05:26:47;25.70;99.90
17774;DHT22;9011;33.236;-97.118;2022-09-01T05:29:16;25.70;99.90
17774;DHT22;9011;33.236;-97.118;2022-09-01T05:31:45;25.70;99.90
17774;DHT22;9011;33.236;-97.118;2022-09-01T05:34:19;25.80;99.90
17774;DHT22;9011;33.236;-97.118;2022-09-01T05:36:53;25.80;99.90
17774;DHT22;9011;33.236;-97.118;2022-09-01T05:39:23;25.70;99.90
17774;DHT22;9011;33.236;-97.118;2022-09-01T05:41:52;25.70;99.90
17774;DHT22;9011;33.236;-97.118;2022-09-01T05:44:26;25.70;99.90
17774;DHT22;9011;33.236;-97.118;2022-09-01T05:46:59;25.70;99.90
17774;DHT22;9011;33.236;-97.118;2022-09-01T05:49:29;25.70;99.90
17774;DHT22;9011;33.236;-97.118;2022-09-01T05:51:58;25.70;99.90
17774;DHT22;9011;33.236;-97.118;2022-09-01T05:54:27;25.70;99.90
17774;DHT22;9011;33.236;-97.118;2022-09-01T05:56:55;25.60;99.90
17774;DHT22;9011;33.236;-97.118;2022-09-01T05:59:25;25.40;99.90
17774;DHT22;9011;33.236;-97.118;2022-09-01T06:01:57;25.30;99.90
17774;DHT22;9011;33.236;-97.118;2022-09-01T06:04:28;25.30;99.90
17774;DHT22;9011;33.236;-97.118;2022-09-01T06:06:56;25.30;99.90
17774;DHT22;9011;33.236;-97.118;2022-09-01T06:09:25;25.30;99.90
17774;DHT22;9011;33.236;-97.118;2022-09-01T06:11:53;25.40;99.90
17774;DHT22;9011;33.236;-97.118;2022-09-01T06:14:22;25.40;99.90
17774;DHT22;9011;33.236;-97.118;2022-09-01T06:16:55;25.30;99.90
17774;DHT22;9011;33.236;-97.118;2022-09-01T06:19:24;25.30;99.90
17774;DHT22;9011;33.236;-97.118;2022-09-01T06:21:54;25.10;99.90
17774;DHT22;9011;33.236;-97.118;2022-09-01T06:24:24;25.10;99.90
17774;DHT22;9011;33.236;-97.118;2022-09-01T06:30:30;25.00;99.90
17774;DHT22;9011;33.236;-97.118;2022-09-01T06:33:02;25.00;99.90
17774;DHT22;9011;33.236;-97.118;2022-09-01T06:35:32;25.00;99.90
17774;DHT22;9011;33.236;-97.118;2022-09-01T06:38:02;25.10;99.90
17774;DHT22;9011;33.236;-97.118;2022-09-01T06:40:30;25.10;99.90
17774;DHT22;9011;33.236;-97.118;2022-09-01T06:42:59;25.20;99.90
17774;DHT22;9011;33.236;-97.118;2022-09-01T06:45:37;25.20;99.90
17774;DHT22;9011;33.236;-97.118;2022-09-01T06:48:07;25.10;99.90
17774;DHT22;9011;33.236;-97.118;2022-09-01T06:50:42;25.10;99.90
17774;DHT22;9011;33.236;-97.118;2022-09-01T06:53:13;25.10;99.90
17774;DHT22;9011;33.236;-97.118;2022-09-01T06:55:47;25.10;99.90
17774;DHT22;9011;33.236;-97.118;2022-09-01T06:58:15;25.10;99.90
17774;DHT22;9011;33.236;-97.118;2022-09-01T07:00:48;25.10;99.90
17774;DHT22;9011;33.236;-97.118;2022-09-01T07:03:17;25.10;99.90
17774;DHT22;9011;33.236;-97.118;2022-09-01T07:05:47;25.10;99.90
17774;DHT22;9011;33.236;-97.118;2022-09-01T07:08:18;25.10;99.90
17774;DHT22;9011;33.236;-97.118;2022-09-01T07:10:48;25.10;99.90
17774;DHT22;9011;33.236;-97.118;2022-09-01T07:13:21;25.10;99.90
17774;DHT22;9011;33.236;-97.118;2022-09-01T07:15:52;25.00;99.90
17774;DHT22;9011;33.236;-97.118;2022-09-01T07:18:23;24.90;99.90
17774;DHT22;9011;33.236;-97.118;2022-09-01T07:20:56;24.90;99.90
17774;DHT22;9011;33.236;-97.118;2022-09-01T07:23:26;24.80;99.90
17774;DHT22;9011;33.236;-97.118;2022-09-01T07:25:55;24.80;99.90
17774;DHT22;9011;33.236;-97.118;2022-09-01T07:28:24;24.80;99.90
17774;DHT22;9011;33.236;-97.118;2022-09-01T07:30:58;24.80;99.90
17774;DHT22;9011;33.236;-97.118;2022-09-01T07:33:51;24.90;99.90
17774;DHT22;9011;33.236;-97.118;2022-09-01T07:36:21;24.90;99.90
17774;DHT22;9011;33.236;-97.118;2022-09-01T07:38:51;24.90;99.90
17774;DHT22;9011;33.236;-97.118;2022-09-01T07:41:22;24.90;99.90
17774;DHT22;9011;33.236;-97.118;2022-09-01T07:47:19;25.00;99.90
17774;DHT22;9011;33.236;-97.118;2022-09-01T07:49:48;25.00;99.90
17774;DHT22;9011;33.236;-97.118;2022-09-01T07:56:10;25.00;99.90
17774;DHT22;9011;33.236;-97.118;2022-09-01T07:58:39;24.90;99.90
17774;DHT22;9011;33.236;-97.118;2022-09-01T08:01:08;24.90;99.90
17774;DHT22;9011;33.236;-97.118;2022-09-01T08:03:37;24.90;99.90
17774;DHT22;9011;33.236;-97.118;2022-09-01T08:06:09;24.80;99.90
17774;DHT22;9011;33.236;-97.118;2022-09-01T08:08:39;24.80;99.90
17774;DHT22;9011;33.236;-97.118;2022-09-01T08:11:17;24.80;99.90
17774;DHT22;9011;33.236;-97.118;2022-09-01T08:13:46;24.60;99.90
17774;DHT22;9011;33.236;-97.118;2022-09-01T08:16:18;24.60;99.90
17774;DHT22;9011;33.236;-97.118;2022-09-01T08:18:47;24.70;99.90
17774;DHT22;9011;33.236;-97.118;2022-09-01T08:21:16;24.60;99.90
17774;DHT22;9011;33.236;-97.118;2022-09-01T08:23:45;24.60;99.90
17774;DHT22;9011;33.236;-97.118;2022-09-01T08:26:15;24.50;99.90
17774;DHT22;9011;33.236;-97.118;2022-09-01T08:28:46;24.60;99.90
17774;DHT22;9011;33.236;-97.118;2022-09-01T08:31:17;24.50;99.90
17774;DHT22;9011;33.236;-97.118;2022-09-01T08:33:48;24.40;99.90
17774;DHT22;9011;33.236;-97.118;2022-09-01T08:36:17;24.40;99.90
17774;DHT22;9011;33.236;-97.118;2022-09-01T08:38:45;24.30;99.90
17774;DHT22;9011;33.236;-97.118;2022-09-01T08:41:16;24.20;99.90
17774;DHT22;9011;33.236;-97.118;2022-09-01T08:44:08;24.30;99.90
17774;DHT22;9011;33.236;-97.118;2022-09-01T08:46:40;24.30;99.90
17774;DHT22;9011;33.236;-97.118;2022-09-01T08:49:13;24.30;99.90
17774;DHT22;9011;33.236;-97.118;2022-09-01T08:51:51;24.30;99.90
17774;DHT22;9011;33.236;-97.118;2022-09-01T08:54:38;24.30;99.90
17774;DHT22;9011;33.236;-97.118;2022-09-01T08:57:15;24.40;99.90
17774;DHT22;9011;33.236;-97.118;2022-09-01T08:59:47;24.40;99.90
17774;DHT22;9011;33.236;-97.118;2022-09-01T09:02:30;24.40;99.90
17774;DHT22;9011;33.236;-97.118;2022-09-01T09:05:04;24.40;99.90
17774;DHT22;9011;33.236;-97.118;2022-09-01T09:07:45;24.40;99.90
17774;DHT22;9011;33.236;-97.118;2022-09-01T09:10:18;24.40;99.90
17774;DHT22;9011;33.236;-97.118;2022-09-01T09:12:59;24.50;99.90
17774;DHT22;9011;33.236;-97.118;2022-09-01T09:15:39;24.40;99.90
17774;DHT22;9011;33.236;-97.118;2022-09-01T09:18:16;24.40;99.90
17774;DHT22;9011;33.236;-97.118;2022-09-01T09:20:47;24.40;99.90
17774;DHT22;9011;33.236;-97.118;2022-09-01T09:23:23;24.40;99.90
17774;DHT22;9011;33.236;-97.118;2022-09-01T09:25:52;24.40;99.90
17774;DHT22;9011;33.236;-97.118;2022-09-01T09:28:21;24.40;99.90
17774;DHT22;9011;33.236;-97.118;2022-09-01T09:30:56;24.30;99.90
17774;DHT22;9011;33.236;-97.118;2022-09-01T09:33:44;24.30;99.90
17774;DHT22;9011;33.236;-97.118;2022-09-01T09:36:17;24.30;99.90
17774;DHT22;9011;33.236;-97.118;2022-09-01T09:38:46;24.40;99.90
17774;DHT22;9011;33.236;-97.118;2022-09-01T09:41:28;24.40;99.90
17774;DHT22;9011;33.236;-97.118;2022-09-01T09:43:59;24.40;99.90
17774;DHT22;9011;33.236;-97.118;2022-09-01T09:46:39;24.40;99.90
17774;DHT22;9011;33.236;-97.118;2022-09-01T09:49:15;24.30;99.90
17774;DHT22;9011;33.236;-97.118;2022-09-01T11:34:52;24.20;99.90
17774;DHT22;9011;33.236;-97.118;2022-09-01T11:37:23;24.20;99.90
17774;DHT22;9011;33.236;-97.118;2022-09-01T11:40:01;24.20;99.90
17774;DHT22;9011;33.236;-97.118;2022-09-01T11:42:38;24.30;99.90
17774;DHT22;9011;33.236;-97.118;2022-09-01T11:45:15;24.30;99.90
17774;DHT22;9011;33.236;-97.118;2022-09-01T12:06:11;24.50;99.90
17774;DHT22;9011;33.236;-97.118;2022-09-01T12:08:51;24.60;99.90
17774;DHT22;9011;33.236;-97.118;2022-09-01T12:11:25;24.60;99.90
17774;DHT22;9011;33.236;-97.118;2022-09-01T12:14:00;24.60;99.90
17774;DHT22;9011;33.236;-97.118;2022-09-01T12:16:36;24.60;99.90
17774;DHT22;9011;33.236;-97.118;2022-09-01T12:19:07;24.60;99.90
17774;DHT22;9011;33.236;-97.118;2022-09-01T12:21:40;24.60;99.90
17774;DHT22;9011;33.236;-97.118;2022-09-01T12:24:15;24.60;99.90
17774;DHT22;9011;33.236;-97.118;2022-09-01T12:26:45;24.60;99.90
17774;DHT22;9011;33.236;-97.118;2022-09-01T12:29:14;24.60;99.90
17774;DHT22;9011;33.236;-97.118;2022-09-01T12:31:45;24.60;99.90
17774;DHT22;9011;33.236;-97.118;2022-09-01T12:34:25;24.60;99.90
17774;DHT22;9011;33.236;-97.118;2022-09-01T12:37:10;24.60;99.90
17774;DHT22;9011;33.236;-97.118;2022-09-01T12:39:40;24.50;99.90
17774;DHT22;9011;33.236;-97.118;2022-09-01T12:42:21;24.50;99.90
17774;DHT22;9011;33.236;-97.118;2022-09-01T12:44:54;24.60;99.90
17774;DHT22;9011;33.236;-97.118;2022-09-01T12:47:45;24.50;99.90
17774;DHT22;9011;33.236;-97.118;2022-09-01T12:50:40;24.50;99.90
17774;DHT22;9011;33.236;-97.118;2022-09-01T12:53:21;24.60;99.90
17774;DHT22;9011;33.236;-97.118;2022-09-01T12:56:05;24.60;99.90
17774;DHT22;9011;33.236;-97.118;2022-09-01T12:58:34;24.60;99.90
17774;DHT22;9011;33.236;-97.118;2022-09-01T13:01:07;24.70;99.90
17774;DHT22;9011;33.236;-97.118;2022-09-01T13:04:25;24.70;99.90
17774;DHT22;9011;33.236;-97.118;2022-09-01T13:06:59;24.70;99.90
17774;DHT22;9011;33.236;-97.118;2022-09-01T13:09:32;24.70;99.90
17774;DHT22;9011;33.236;-97.118;2022-09-01T13:12:11;24.80;99.90
17774;DHT22;9011;33.236;-97.118;2022-09-01T13:14:45;24.70;99.90
17774;DHT22;9011;33.236;-97.118;2022-09-01T13:17:13;24.80;99.90
17774;DHT22;9011;33.236;-97.118;2022-09-01T13:19:42;24.90;99.90
17774;DHT22;9011;33.236;-97.118;2022-09-01T13:22:10;25.00;99.90
17774;DHT22;9011;33.236;-97.118;2022-09-01T13:24:42;25.10;99.90
17774;DHT22;9011;33.236;-97.118;2022-09-01T13:27:13;25.10;99.90
17774;DHT22;9011;33.236;-97.118;2022-09-01T13:29:43;25.20;99.90
17774;DHT22;9011;33.236;-97.118;2022-09-01T13:32:11;25.30;99.90
17774;DHT22;9011;33.236;-97.118;2022-09-01T13:34:39;25.40;99.90
17774;DHT22;9011;33.236;-97.118;2022-09-01T13:37:08;25.40;99.90
17774;DHT22;9011;33.236;-97.118;2022-09-01T13:39:36;25.50;99.90
17774;DHT22;9011;33.236;-97.118;2022-09-01T13:42:06;25.50;99.90
17774;DHT22;9011;33.236;-97.118;2022-09-01T13:44:35;25.60;99.90
17774;DHT22;9011;33.236;-97.118;2022-09-01T13:47:04;25.70;99.90
17774;DHT22;9011;33.236;-97.118;2022-09-01T13:49:34;25.70;99.90
17774;DHT22;9011;33.236;-97.118;2022-09-01T13:52:05;25.80;99.90
17774;DHT22;9011;33.236;-97.118;2022-09-01T13:54:33;25.80;99.90
17774;DHT22;9011;33.236;-97.118;2022-09-01T13:57:02;25.70;99.90
17774;DHT22;9011;33.236;-97.118;2022-09-01T13:59:31;25.80;99.90
17774;DHT22;9011;33.236;-97.118;2022-09-01T14:02:00;25.90;99.90
17774;DHT22;9011;33.236;-97.118;2022-09-01T14:04:28;26.00;99.90
17774;DHT22;9011;33.236;-97.118;2022-09-01T14:07:02;26.10;99.90
17774;DHT22;9011;33.236;-97.118;2022-09-01T14:09:45;26.20;99.90
17774;DHT22;9011;33.236;-97.118;2022-09-01T14:12:14;26.10;99.90
17774;DHT22;9011;33.236;-97.118;2022-09-01T14:14:45;26.30;99.90
17774;DHT22;9011;33.236;-97.118;2022-09-01T14:17:14;26.30;99.90
17774;DHT22;9011;33.236;-97.118;2022-09-01T14:19:42;26.30;99.90
17774;DHT22;9011;33.236;-97.118;2022-09-01T14:22:15;26.50;99.90
17774;DHT22;9011;33.236;-97.118;2022-09-01T14:24:44;26.60;99.90
17774;DHT22;9011;33.236;-97.118;2022-09-01T14:27:12;26.60;99.90
17774;DHT22;9011;33.236;-97.118;2022-09-01T14:29:40;26.70;99.90
17774;DHT22;9011;33.236;-97.118;2022-09-01T14:32:10;26.70;99.90
17774;DHT22;9011;33.236;-97.118;2022-09-01T14:34:39;26.50;99.90
17774;DHT22;9011;33.236;-97.118;2022-09-01T14:37:07;26.50;99.90
17774;DHT22;9011;33.236;-97.118;2022-09-01T14:39:36;26.70;99.90
17774;DHT22;9011;33.236;-97.118;2022-09-01T14:42:05;26.60;99.90
17774;DHT22;9011;33.236;-97.118;2022-09-01T14:44:37;26.80;99.90
17774;DHT22;9011;33.236;-97.118;2022-09-01T14:47:06;26.80;99.90
17774;DHT22;9011;33.236;-97.118;2022-09-01T14:49:36;26.90;99.90
17774;DHT22;9011;33.236;-97.118;2022-09-01T14:52:06;26.90;99.90
17774;DHT22;9011;33.236;-97.118;2022-09-01T14:54:35;27.00;99.90
17774;DHT22;9011;33.236;-97.118;2022-09-01T14:57:04;27.10;99.90
17774;DHT22;9011;33.236;-97.118;2022-09-01T14:59:33;27.20;99.90
17774;DHT22;9011;33.236;-97.118;2022-09-01T15:02:01;27.30;99.90
17774;DHT22;9011;33.236;-97.118;2022-09-01T15:04:30;27.20;99.90
17774;DHT22;9011;33.236;-97.118;2022-09-01T15:07:00;27.20;99.90
17774;DHT22;9011;33.236;-97.118;2022-09-01T15:09:32;27.30;99.90
17774;DHT22;9011;33.236;-97.118;2022-09-01T15:12:00;27.40;99.90
17774;DHT22;9011;33.236;-97.118;2022-09-01T15:14:30;27.40;99.90
17774;DHT22;9011;33.236;-97.118;2022-09-01T15:16:58;27.40;99.90
17774;DHT22;9011;33.236;-97.118;2022-09-01T15:19:27;27.20;99.90
17774;DHT22;9011;33.236;-97.118;2022-09-01T15:21:55;27.30;99.90
17774;DHT22;9011;33.236;-97.118;2022-09-01T15:24:25;27.50;99.90
17774;DHT22;9011;33.236;-97.118;2022-09-01T15:26:53;27.60;99.90
17774;DHT22;9011;33.236;-97.118;2022-09-01T15:29:21;27.70;99.90
17774;DHT22;9011;33.236;-97.118;2022-09-01T15:31:50;27.70;99.90
17774;DHT22;9011;33.236;-97.118;2022-09-01T15:34:18;27.80;99.90
17774;DHT22;9011;33.236;-97.118;2022-09-01T15:36:46;27.80;99.90
17774;DHT22;9011;33.236;-97.118;2022-09-01T15:39:14;28.10;99.90
17774;DHT22;9011;33.236;-97.118;2022-09-01T15:41:44;28.00;99.90
17774;DHT22;9011;33.236;-97.118;2022-09-01T15:44:13;28.10;99.90
17774;DHT22;9011;33.236;-97.118;2022-09-01T15:46:41;28.40;99.90
17774;DHT22;9011;33.236;-97.118;2022-09-01T15:49:11;28.50;99.90
17774;DHT22;9011;33.236;-97.118;2022-09-01T15:51:40;28.60;99.90
17774;DHT22;9011;33.236;-97.118;2022-09-01T15:54:11;28.60;99.90
17774;DHT22;9011;33.236;-97.118;2022-09-01T15:56:40;28.80;99.90
17774;DHT22;9011;33.236;-97.118;2022-09-01T15:59:11;29.00;99.90
17774;DHT22;9011;33.236;-97.118;2022-09-01T16:01:41;29.10;99.90
17774;DHT22;9011;33.236;-97.118;2022-09-01T16:04:12;29.10;99.90
17774;DHT22;9011;33.236;-97.118;2022-09-01T16:06:41;29.20;99.90
17774;DHT22;9011;33.236;-97.118;2022-09-01T16:09:10;29.10;99.90
17774;DHT22;9011;33.236;-97.118;2022-09-01T16:11:39;29.10;99.90
17774;DHT22;9011;33.236;-97.118;2022-09-01T16:14:07;28.60;99.90
17774;DHT22;9011;33.236;-97.118;2022-09-01T16:16:44;28.90;99.90
17774;DHT22;9011;33.236;-97.118;2022-09-01T16:19:23;29.10;99.90
17774;DHT22;9011;33.236;-97.118;2022-09-01T16:22:02;29.30;99.90
17774;DHT22;9011;33.236;-97.118;2022-09-01T16:24:39;29.40;99.90
17774;DHT22;9011;33.236;-97.118;2022-09-01T16:27:08;29.40;99.90
17774;DHT22;9011;33.236;-97.118;2022-09-01T16:29:43;29.40;99.90
17774;DHT22;9011;33.236;-97.118;2022-09-01T16:32:14;29.30;99.90
17774;DHT22;9011;33.236;-97.118;2022-09-01T16:34:45;29.50;99.90
17774;DHT22;9011;33.236;-97.118;2022-09-01T16:37:37;29.60;99.90
17774;DHT22;9011;33.236;-97.118;2022-09-01T16:40:15;29.60;99.90
17774;DHT22;9011;33.236;-97.118;2022-09-01T16:42:47;29.70;99.90
17774;DHT22;9011;33.236;-97.118;2022-09-01T16:45:29;29.50;99.90
17774;DHT22;9011;33.236;-97.118;2022-09-01T16:48:08;29.40;99.90
17774;DHT22;9011;33.236;-97.118;2022-09-01T16:50:43;29.40;99.90
17774;DHT22;9011;33.236;-97.118;2022-09-01T16:53:36;29.60;99.90
17774;DHT22;9011;33.236;-97.118;2022-09-01T16:56:09;29.30;99.90
17774;DHT22;9011;33.236;-97.118;2022-09-01T16:58:44;29.30;99.90
17774;DHT22;9011;33.236;-97.118;2022-09-01T17:01:25;29.30;99.90
17774;DHT22;9011;33.236;-97.118;2022-09-01T17:04:09;29.40;99.90
17774;DHT22;9011;33.236;-97.118;2022-09-01T17:06:54;29.40;99.90
17774;DHT22;9011;33.236;-97.118;2022-09-01T17:09:29;29.50;99.90
17774;DHT22;9011;33.236;-97.118;2022-09-01T17:12:13;29.60;99.90
17774;DHT22;9011;33.236;-97.118;2022-09-01T17:14:47;29.60;99.90
17774;DHT22;9011;33.236;-97.118;2022-09-01T17:17:20;29.70;99.90
17774;DHT22;9011;33.236;-97.118;2022-09-01T17:19:53;29.60;99.90
17774;DHT22;9011;33.236;-97.118;2022-09-01T17:22:21;29.60;99.90
17774;DHT22;9011;33.236;-97.118;2022-09-01T17:24:55;29.70;99.90
17774;DHT22;9011;33.236;-97.118;2022-09-01T17:27:27;29.80;99.90
17774;DHT22;9011;33.236;-97.118;2022-09-01T17:29:56;29.80;99.90
17774;DHT22;9011;33.236;-97.118;2022-09-01T17:32:44;30.00;99.90
17774;DHT22;9011;33.236;-97.118;2022-09-01T17:35:23;29.90;99.90
17774;DHT22;9011;33.236;-97.118;2022-09-01T17:38:01;29.80;99.90
17774;DHT22;9011;33.236;-97.118;2022-09-01T17:40:46;30.00;99.90
17774;DHT22;9011;33.236;-97.118;2022-09-01T17:43:20;29.90;99.90
17774;DHT22;9011;33.236;-97.118;2022-09-01T17:45:58;30.10;99.90
17774;DHT22;9011;33.236;-97.118;2022-09-01T17:48:38;30.20;99.90
17774;DHT22;9011;33.236;-97.118;2022-09-01T17:51:17;30.40;99.90
17774;DHT22;9011;33.236;-97.118;2022-09-01T17:53:55;30.60;99.90
17774;DHT22;9011;33.236;-97.118;2022-09-01T17:56:48;30.80;99.90
17774;DHT22;9011;33.236;-97.118;2022-09-01T17:59:23;30.70;99.90
17774;DHT22;9011;33.236;-97.118;2022-09-01T18:02:02;30.80;99.90
17774;DHT22;9011;33.236;-97.118;2022-09-01T18:04:49;30.80;99.90
17774;DHT22;9011;33.236;-97.118;2022-09-01T18:07:45;30.90;99.90
17774;DHT22;9011;33.236;-97.118;2022-09-01T18:10:22;30.90;99.90
17774;DHT22;9011;33.236;-97.118;2022-09-01T18:12:58;30.90;99.90
17774;DHT22;9011;33.236;-97.118;2022-09-01T18:15:26;30.90;99.90
17774;DHT22;9011;33.236;-97.118;2022-09-01T18:18:02;30.50;99.90
17774;DHT22;9011;33.236;-97.118;2022-09-01T18:20:35;30.40;99.90
17774;DHT22;9011;33.236;-97.118;2022-09-01T18:23:10;30.10;99.90
17774;DHT22;9011;33.236;-97.118;2022-09-01T18:25:41;29.30;99.90